createdAt,value
2023-03-30T00:02:05.744Z,4.47
2023-03-30T00:05:08.772Z,4.53
2023-03-30T00:08:11.142Z,4.10
2023-03-30T00:11:18.244Z,5.35
2023-03-30T00:14:22.980Z,4.47
2023-03-30T00:17:26.264Z,4.70
2023-03-30T00:20:28.371Z,5.75
2023-03-30T00:23:30.518Z,4.75
2023-03-30T00:26:32.576Z,4.38
2023-03-30T00:29:34.870Z,5.53
2023-03-30T00:32:40.024Z,6.30
2023-03-30T00:35:53.702Z,5.28
2023-03-30T00:38:59.443Z,4.18
2023-03-30T00:42:01.826Z,4.28
2023-03-30T00:45:19.560Z,4.47
2023-03-30T00:48:34.792Z,7.22
2023-03-30T00:51:44.541Z,4.45
2023-03-30T00:54:47.830Z,4.75
2023-03-30T00:57:51.457Z,4.70
2023-03-30T01:00:54.437Z,4.38
2023-03-30T01:04:02.422Z,4.25
2023-03-30T01:07:06.110Z,5.32
2023-03-30T01:10:09.294Z,5.68
2023-03-30T01:13:14.784Z,4.65
2023-03-30T01:16:45.871Z,5.85
2023-03-30T01:20:13.037Z,7.68
2023-03-30T01:23:35.518Z,4.88
2023-03-30T01:27:10.285Z,6.07
2023-03-30T01:30:33.625Z,4.97
2023-03-30T01:34:06.503Z,5.18
2023-03-30T01:37:32.623Z,5.03
2023-03-30T01:40:43.262Z,6.25
2023-03-30T01:43:56.442Z,6.60
2023-03-30T01:47:06.410Z,4.95
2023-03-30T01:50:21.845Z,5.00
2023-03-30T01:53:56.560Z,4.75
2023-03-30T01:57:34.276Z,5.15
2023-03-30T02:00:41.078Z,5.45
2023-03-30T02:03:48.024Z,4.63
2023-03-30T02:06:58.807Z,4.68
2023-03-30T02:10:04.952Z,4.45
2023-03-30T02:13:09.771Z,4.40
2023-03-30T02:16:22.182Z,5.03
2023-03-30T02:19:28.353Z,4.68
2023-03-30T02:22:32.606Z,4.82
2023-03-30T02:25:38.654Z,3.95
2023-03-30T02:28:41.126Z,3.83
2023-03-30T02:31:45.689Z,5.03
2023-03-30T02:35:18.929Z,5.88
2023-03-30T02:38:35.687Z,5.15
2023-03-30T02:42:05.076Z,4.93
2023-03-30T02:48:36.837Z,4.53
2023-03-30T02:51:53.141Z,5.28
2023-03-30T02:55:14.825Z,4.05
2023-03-30T02:58:43.698Z,5.00
2023-03-30T03:02:09.618Z,4.05
2023-03-30T03:05:14.859Z,4.60
2023-03-30T03:08:40.542Z,4.65
2023-03-30T03:11:44.886Z,5.37
2023-03-30T03:14:47.030Z,5.97
2023-03-30T03:17:51.728Z,5.78
2023-03-30T03:20:53.945Z,4.93
2023-03-30T03:23:58.458Z,4.40
2023-03-30T03:27:11.969Z,4.90
2023-03-30T03:30:36.146Z,5.03
2023-03-30T03:36:59.685Z,5.55
2023-03-30T03:40:06.440Z,5.45
2023-03-30T03:43:08.654Z,5.93
2023-03-30T03:46:11.598Z,5.72
2023-03-30T03:49:13.942Z,4.95
2023-03-30T03:52:16.121Z,6.15
2023-03-30T03:55:18.755Z,4.97
2023-03-30T03:58:27.431Z,4.85
2023-03-30T04:01:32.674Z,5.00
2023-03-30T04:04:38.524Z,5.88
2023-03-30T04:07:41.772Z,5.55
2023-03-30T04:10:44.402Z,6.50
2023-03-30T04:14:15.742Z,7.15
2023-03-30T04:17:50.087Z,6.55
2023-03-30T04:21:13.750Z,8.65
2023-03-30T04:24:29.906Z,10.23
2023-03-30T04:27:53.630Z,10.00
2023-03-30T04:31:10.797Z,12.20
2023-03-30T04:34:36.281Z,11.70
2023-03-30T04:38:02.497Z,10.57
2023-03-30T04:41:36.174Z,10.57
2023-03-30T04:45:07.151Z,13.77
2023-03-30T04:48:39.434Z,12.48
2023-03-30T04:52:00.691Z,12.15
2023-03-30T04:55:26.813Z,11.77
2023-03-30T04:59:04.367Z,11.13
2023-03-30T05:02:26.497Z,9.90
2023-03-30T05:05:55.806Z,9.48
2023-03-30T05:09:36.497Z,10.10
2023-03-30T05:13:01.763Z,9.85
2023-03-30T05:16:28.582Z,10.65
2023-03-30T05:20:10.254Z,9.70
2023-03-30T05:23:36.454Z,9.05
2023-03-30T05:27:13.145Z,8.70
2023-03-30T05:30:35.197Z,8.95
2023-03-30T05:34:11.137Z,10.07
2023-03-30T05:37:37.421Z,8.07
2023-03-30T05:40:58.834Z,8.68
2023-03-30T05:44:22.421Z,6.75
2023-03-30T05:47:35.039Z,7.90
2023-03-30T05:51:17.610Z,8.35
2023-03-30T05:54:36.550Z,8.18
2023-03-30T05:57:50.564Z,8.00
2023-03-30T06:01:16.333Z,7.35
2023-03-30T06:04:21.201Z,6.10
2023-03-30T06:07:32.251Z,6.70
2023-03-30T06:10:36.218Z,7.43
2023-03-30T06:13:38.977Z,6.22
2023-03-30T06:16:41.349Z,6.60
2023-03-30T06:19:45.267Z,7.32
2023-03-30T06:22:48.806Z,7.35
2023-03-30T06:25:59.631Z,6.63
2023-03-30T06:29:07.740Z,6.20
2023-03-30T06:32:10.437Z,7.32
2023-03-30T06:35:30.512Z,6.85
2023-03-30T06:38:36.195Z,7.25
2023-03-30T06:41:38.515Z,7.70
2023-03-30T06:44:40.789Z,6.55
2023-03-30T06:47:48.659Z,6.72
2023-03-30T06:50:54.705Z,7.60
2023-03-30T06:53:59.573Z,7.10
2023-03-30T06:57:04.366Z,6.65
2023-03-30T07:00:26.274Z,9.88
2023-03-30T07:03:48.884Z,8.63
2023-03-30T07:06:59.654Z,6.60
2023-03-30T07:10:53.084Z,6.50
2023-03-30T07:14:08.364Z,7.03
2023-03-30T07:17:13.335Z,6.18
2023-03-30T07:20:17.579Z,10.65
2023-03-30T07:23:46.117Z,6.60
2023-03-30T07:27:01.338Z,12.88
2023-03-30T07:30:20.673Z,6.90
2023-03-30T07:33:29.935Z,5.72
2023-03-30T07:36:34.109Z,6.37
2023-03-30T07:39:37.245Z,6.60
2023-03-30T07:42:43.408Z,5.82
2023-03-30T07:45:46.250Z,5.25
2023-03-30T07:48:56.223Z,5.22
2023-03-30T07:51:59.434Z,4.88
2023-03-30T07:55:12.482Z,5.38
2023-03-30T07:58:24.841Z,6.00
2023-03-30T08:01:28.124Z,5.03
2023-03-30T08:04:50.951Z,6.10
2023-03-30T08:08:01.244Z,5.03
2023-03-30T08:14:15.735Z,3.65
2023-03-30T08:17:19.424Z,5.15
2023-03-30T08:20:21.944Z,5.25
2023-03-30T08:23:25.317Z,4.88
2023-03-30T08:26:30.186Z,3.50
2023-03-30T08:29:33.955Z,3.63
2023-03-30T08:32:36.152Z,3.88
2023-03-30T08:35:38.352Z,3.55
2023-03-30T08:38:41.235Z,6.22
2023-03-30T08:41:58.206Z,3.85
2023-03-30T08:45:06.711Z,4.07
2023-03-30T08:48:25.096Z,4.85
2023-03-30T08:51:36.018Z,4.28
2023-03-30T08:54:38.246Z,3.38
2023-03-30T08:57:55.133Z,3.88
2023-03-30T09:01:15.062Z,3.13
2023-03-30T09:05:02.103Z,4.97
2023-03-30T09:08:18.480Z,4.80
2023-03-30T09:11:35.756Z,4.47
2023-03-30T09:14:46.662Z,3.38
2023-03-30T09:17:55.366Z,3.70
2023-03-30T09:21:01.696Z,4.45
2023-03-30T09:24:14.635Z,4.25
2023-03-30T09:27:25.416Z,3.70
2023-03-30T09:30:40.747Z,2.75
2023-03-30T09:33:54.908Z,3.63
2023-03-30T09:36:59.085Z,2.60
2023-03-30T09:40:48.575Z,3.13
2023-03-30T09:43:52.967Z,3.08
2023-03-30T09:46:59.124Z,4.25
2023-03-30T09:50:05.980Z,4.15
2023-03-30T09:53:35.249Z,4.25
2023-03-30T09:56:51.542Z,3.17
2023-03-30T09:59:56.017Z,3.83
2023-03-30T10:03:07.022Z,3.42
2023-03-30T10:06:19.891Z,3.47
2023-03-30T10:09:24.177Z,2.65
2023-03-30T10:12:28.572Z,3.70
2023-03-30T10:15:35.643Z,3.00
2023-03-30T10:18:41.579Z,3.47
2023-03-30T10:21:47.152Z,3.10
2023-03-30T10:24:55.550Z,2.90
2023-03-30T10:31:13.109Z,2.80
2023-03-30T10:34:21.026Z,2.53
2023-03-30T10:37:32.075Z,2.40
2023-03-30T10:40:42.357Z,2.75
2023-03-30T10:43:45.121Z,3.78
2023-03-30T10:46:49.117Z,3.67
2023-03-30T10:50:27.010Z,2.90
2023-03-30T10:53:43.119Z,2.42
2023-03-30T10:56:55.976Z,2.47
2023-03-30T11:00:23.091Z,2.10
2023-03-30T11:03:29.840Z,2.50
2023-03-30T11:06:42.305Z,1.77
2023-03-30T11:09:55.079Z,3.10
2023-03-30T11:13:06.017Z,3.00
2023-03-30T11:16:23.665Z,3.70
2023-03-30T11:19:47.824Z,2.20
2023-03-30T11:23:47.300Z,3.42
2023-03-30T11:27:14.317Z,3.22
2023-03-30T11:30:27.894Z,2.53
2023-03-30T11:33:46.875Z,2.80
2023-03-30T11:37:00.662Z,2.70
2023-03-30T11:40:16.728Z,2.80
2023-03-30T11:43:26.506Z,3.25
2023-03-30T11:47:09.693Z,2.42
2023-03-30T11:50:39.047Z,3.47
2023-03-30T11:54:12.214Z,3.22
2023-03-30T11:58:06.609Z,2.85
2023-03-30T12:01:24.431Z,3.72
2023-03-30T12:04:58.911Z,2.00
2023-03-30T12:08:10.607Z,3.00
2023-03-30T12:11:33.536Z,2.97
2023-03-30T12:14:45.901Z,2.83
2023-03-30T12:17:49.172Z,2.63
2023-03-30T12:21:17.919Z,3.50
2023-03-30T12:24:34.104Z,1.53
2023-03-30T12:27:37.686Z,3.78
2023-03-30T12:30:59.823Z,2.22
2023-03-30T12:34:16.193Z,3.60
2023-03-30T12:37:24.703Z,2.72
2023-03-30T12:40:29.737Z,2.22
2023-03-30T12:43:42.601Z,2.53
2023-03-30T12:47:12.602Z,3.33
2023-03-30T12:50:42.699Z,6.07
2023-03-30T12:54:25.217Z,2.88
2023-03-30T12:58:01.340Z,2.50
2023-03-30T13:01:22.638Z,2.10
2023-03-30T13:04:30.199Z,3.10
2023-03-30T13:07:36.580Z,2.27
2023-03-30T13:10:43.303Z,2.90
2023-03-30T13:14:30.458Z,3.67
2023-03-30T13:17:56.755Z,2.00
2023-03-30T13:21:17.172Z,1.70
2023-03-30T13:24:28.691Z,2.95
2023-03-30T13:27:36.873Z,2.00
2023-03-30T13:30:39.161Z,1.85
2023-03-30T13:33:52.845Z,2.13
2023-03-30T13:37:05.107Z,3.03
2023-03-30T13:40:44.108Z,2.10
2023-03-30T13:44:18.721Z,3.67
2023-03-30T13:47:52.699Z,2.35
2023-03-30T13:51:02.488Z,2.15
2023-03-30T13:54:12.574Z,1.73
2023-03-30T13:57:22.043Z,2.50
2023-03-30T14:00:48.659Z,2.22
2023-03-30T14:03:57.484Z,3.10
2023-03-30T14:07:25.876Z,3.08
2023-03-30T14:10:28.192Z,4.18
2023-03-30T14:13:30.460Z,1.65
2023-03-30T14:16:36.858Z,1.98
2023-03-30T14:19:52.838Z,3.60
2023-03-30T14:22:58.708Z,4.03
2023-03-30T14:26:04.100Z,3.50
2023-03-30T14:29:13.256Z,2.05
2023-03-30T14:32:17.370Z,11.35
2023-03-30T14:35:19.547Z,3.65
2023-03-30T14:38:34.894Z,5.20
2023-03-30T14:41:38.898Z,2.45
2023-03-30T14:44:41.851Z,3.83
2023-03-30T14:47:46.312Z,2.38
2023-03-30T14:50:49.277Z,3.55
2023-03-30T14:53:53.430Z,3.35
2023-03-30T14:57:01.138Z,2.95
2023-03-30T15:00:21.702Z,1.77
2023-03-30T15:03:33.513Z,1.98
2023-03-30T15:06:58.489Z,2.45
2023-03-30T15:11:34.539Z,2.55
2023-03-30T15:17:50.754Z,2.17
2023-03-30T15:20:56.850Z,2.70
2023-03-30T15:24:01.526Z,2.08
2023-03-30T15:27:07.017Z,2.67
2023-03-30T15:30:37.563Z,2.60
2023-03-30T15:34:01.636Z,2.72
2023-03-30T15:37:04.291Z,3.47
2023-03-30T15:40:28.586Z,4.22
2023-03-30T15:43:33.593Z,3.63
2023-03-30T15:46:36.523Z,3.38
2023-03-30T15:49:43.850Z,2.75
2023-03-30T15:52:46.916Z,4.22
2023-03-30T15:55:52.121Z,4.82
2023-03-30T15:58:54.564Z,5.68
2023-03-30T16:02:02.417Z,3.85
2023-03-30T16:05:08.299Z,3.47
2023-03-30T16:08:11.319Z,4.65
2023-03-30T16:11:16.372Z,6.90
2023-03-30T16:14:23.091Z,6.05
2023-03-30T16:17:25.862Z,31.75
2023-03-30T16:20:31.532Z,4.85
2023-03-30T16:23:33.937Z,5.00
2023-03-30T16:26:36.181Z,3.80
2023-03-30T16:29:38.348Z,5.60
2023-03-30T16:32:40.453Z,4.22
2023-03-30T16:35:49.974Z,4.45
2023-03-30T16:38:53.032Z,5.38
2023-03-30T16:41:56.379Z,5.25
2023-03-30T16:44:58.566Z,5.78
2023-03-30T16:48:01.429Z,4.10
2023-03-30T16:51:06.703Z,6.10
2023-03-30T16:54:29.480Z,4.97
2023-03-30T16:57:34.128Z,5.10
2023-03-30T17:00:43.221Z,5.00
2023-03-30T17:03:48.009Z,4.25
2023-03-30T17:06:50.313Z,10.68
2023-03-30T17:09:52.469Z,10.10
2023-03-30T17:12:55.845Z,10.80
2023-03-30T17:16:00.089Z,10.35
2023-03-30T17:19:02.525Z,8.18
2023-03-30T17:22:04.621Z,8.93
2023-03-30T17:25:09.054Z,8.70
2023-03-30T17:28:23.907Z,8.07
2023-03-30T17:31:26.406Z,9.73
2023-03-30T17:34:28.720Z,9.25
2023-03-30T17:42:56.620Z,9.85
2023-03-30T17:46:00.007Z,10.93
2023-03-30T17:49:19.326Z,12.30
2023-03-30T17:52:21.498Z,16.15
2023-03-30T17:55:39.866Z,12.35
2023-03-30T17:58:48.983Z,14.25
2023-03-30T18:01:56.555Z,13.93
2023-03-30T18:05:17.278Z,12.50
2023-03-30T18:08:21.588Z,13.48
2023-03-30T18:11:27.891Z,11.93
2023-03-30T18:14:32.382Z,11.65
2023-03-30T18:17:34.507Z,12.10
2023-03-30T18:20:44.297Z,12.68
2023-03-30T18:23:47.786Z,13.43
2023-03-30T18:26:51.612Z,13.88
2023-03-30T18:30:21.536Z,21.10
2023-03-30T18:33:25.355Z,14.52
2023-03-30T18:36:28.110Z,15.00
2023-03-30T18:39:30.232Z,17.55
2023-03-30T18:42:45.998Z,17.23
2023-03-30T18:45:50.014Z,14.70
2023-03-30T18:48:54.424Z,14.82
2023-03-30T18:51:58.505Z,14.95
2023-03-30T18:55:04.469Z,14.55
2023-03-30T18:58:22.229Z,15.48
2023-03-30T19:01:27.394Z,16.13
2023-03-30T19:04:32.216Z,13.02
2023-03-30T19:07:37.225Z,13.85
2023-03-30T19:10:42.676Z,12.95
2023-03-30T19:13:47.806Z,14.00
2023-03-30T19:16:49.942Z,14.95
2023-03-30T19:23:13.363Z,13.90
2023-03-30T19:26:18.815Z,12.75
2023-03-30T19:29:21.127Z,12.65
2023-03-30T19:32:26.156Z,12.50
2023-03-30T19:35:31.576Z,11.57
2023-03-30T19:38:35.248Z,11.40
2023-03-30T19:41:44.416Z,10.93
2023-03-30T19:44:55.344Z,12.15
2023-03-30T19:47:57.468Z,11.52
2023-03-30T19:51:02.021Z,11.50
2023-03-30T19:54:05.356Z,10.27
2023-03-30T19:57:18.939Z,11.27
2023-03-30T20:00:23.060Z,11.00
2023-03-30T20:03:31.231Z,11.55
2023-03-30T20:06:36.703Z,10.50
2023-03-30T20:09:42.991Z,11.93
2023-03-30T20:12:48.105Z,13.05
2023-03-30T20:15:58.066Z,12.25
2023-03-30T20:19:02.496Z,12.27
2023-03-30T20:22:04.627Z,12.32
2023-03-30T20:25:08.809Z,11.90
2023-03-30T20:31:57.951Z,10.77
2023-03-30T20:35:00.231Z,10.00
2023-03-30T20:38:08.228Z,10.50
2023-03-30T20:41:12.018Z,11.23
2023-03-30T20:44:14.341Z,9.63
2023-03-30T20:47:32.954Z,10.80
2023-03-30T20:50:35.293Z,10.38
2023-03-30T20:53:38.077Z,12.75
2023-03-30T20:56:46.913Z,11.68
2023-03-30T20:59:50.494Z,11.52
2023-03-30T21:02:52.874Z,10.65
2023-03-30T21:06:06.534Z,11.60
2023-03-30T21:09:10.112Z,10.98
2023-03-30T21:12:12.202Z,11.32
2023-03-30T21:15:15.313Z,10.10
2023-03-30T21:18:17.416Z,12.27
2023-03-30T21:21:19.808Z,9.98
2023-03-30T21:24:21.984Z,12.07
2023-03-30T21:27:28.034Z,10.27
2023-03-30T21:30:33.405Z,10.40
2023-03-30T21:33:36.635Z,10.85
2023-03-30T21:36:39.564Z,11.82
2023-03-30T21:39:42.091Z,13.05
2023-03-30T21:42:44.447Z,13.05
2023-03-30T21:45:55.740Z,13.57
2023-03-30T21:48:58.071Z,12.32
2023-03-30T21:52:00.370Z,10.20
2023-03-30T21:55:03.064Z,12.63
2023-03-30T21:58:05.511Z,10.55
2023-03-30T22:01:11.900Z,11.20
2023-03-30T22:04:15.102Z,12.65
2023-03-30T22:07:17.295Z,11.98
2023-03-30T22:10:19.570Z,10.52
2023-03-30T22:13:21.721Z,12.07
2023-03-30T22:16:29.242Z,10.70
2023-03-30T22:19:32.107Z,9.07
2023-03-30T22:22:34.707Z,10.50
2023-03-30T22:25:37.221Z,10.35
2023-03-30T22:28:40.113Z,11.07
2023-03-30T22:31:42.372Z,9.07
2023-03-30T22:34:44.647Z,9.27
2023-03-30T22:37:46.670Z,9.52
2023-03-30T22:40:48.737Z,8.60
2023-03-30T22:43:52.108Z,9.45
2023-03-30T22:46:54.453Z,9.45
2023-03-30T22:49:56.560Z,7.43
2023-03-30T22:52:58.670Z,8.18
2023-03-30T22:56:01.656Z,8.45
2023-03-30T22:59:03.845Z,8.10
2023-03-30T23:02:05.903Z,7.63
2023-03-30T23:05:09.060Z,7.28
2023-03-30T23:08:12.387Z,7.80
2023-03-30T23:11:14.506Z,7.72
2023-03-30T23:14:16.757Z,8.40
2023-03-30T23:17:18.828Z,7.10
2023-03-30T23:20:22.229Z,7.57
2023-03-30T23:23:24.517Z,9.48
2023-03-30T23:26:27.605Z,10.38
2023-03-30T23:29:29.632Z,12.45
2023-03-30T23:32:32.112Z,12.93
2023-03-30T23:35:34.555Z,11.88
2023-03-30T23:38:37.610Z,11.52
2023-03-30T23:41:39.762Z,12.80
2023-03-30T23:44:41.834Z,11.88
2023-03-30T23:47:44.184Z,11.15
2023-03-30T23:50:46.670Z,12.90
2023-03-30T23:53:54.549Z,11.13
2023-03-30T23:56:57.834Z,9.15
2023-03-30T23:59:59.902Z,8.98
